Time;durP1;ratioP1;P1;durP2;ratioP2;P2;SDS_P1;SDS_P2;PMS_P1;PMS_P2;Temp;Humidity;BMP_temperature;BMP_pressure;BME280_temperature;BME280_humidity;BME280_pressure;Samples;Min_cycle;Max_cycle;Signal;HPM_P1;HPM_P2
2022/04/21 00:00:35;;;;;;;;;;;5.70;91.40;;;;;;5030495;28;20408;-66
2022/04/21 00:03:03;;;;;;;;;;;5.60;91.70;;;;;;5032673;28;20680;-66
2022/04/21 00:05:31;;;;;;;;;;;5.60;91.90;;;;;;5029237;28;20027;-67
2022/04/21 00:07:58;;;;;;;;;;;5.60;91.70;;;;;;5030910;28;19929;-66
2022/04/21 00:10:26;;;;;;;;;;;5.50;91.40;;;;;;5030226;28;19936;-66
2022/04/21 00:12:54;;;;;;;;;;;5.50;91.70;;;;;;5031189;28;19924;-66
2022/04/21 00:15:22;;;;;;;;;;;5.50;91.70;;;;;;5031358;28;19929;-67
2022/04/21 00:17:49;;;;;;;;;;;5.50;92.30;;;;;;5029719;28;19955;-66
2022/04/21 00:20:16;;;;;;;;;;;5.50;92.40;;;;;;5032777;28;20048;-66
2022/04/21 00:25:29;;;;;;;;;;;5.50;92.80;;;;;;5031825;28;20043;-66
2022/04/21 00:27:56;;;;;;;;;;;5.40;92.50;;;;;;5031499;28;19971;-66
2022/04/21 00:30:23;;;;;;;;;;;5.40;93.00;;;;;;5030976;28;19933;-66
2022/04/21 00:32:50;;;;;;;;;;;5.40;92.50;;;;;;5036877;28;19932;-66
2022/04/21 00:35:23;;;;;;;;;;;5.30;92.80;;;;;;5032878;28;19933;-66
2022/04/21 00:37:52;;;;;;;;;;;5.30;92.60;;;;;;5029714;28;19940;-66
2022/04/21 00:40:20;;;;;;;;;;;5.20;92.30;;;;;;5030743;28;19932;-66
2022/04/21 00:42:47;;;;;;;;;;;5.20;92.30;;;;;;5029280;28;19933;-66
2022/04/21 00:45:15;;;;;;;;;;;5.30;92.80;;;;;;5033389;28;20015;-67
2022/04/21 00:47:44;;;;;;;;;;;5.20;93.00;;;;;;5029174;28;19928;-66
2022/04/21 00:50:16;;;;;;;;;;;5.20;93.10;;;;;;5028340;28;20370;-66
2022/04/21 00:52:44;;;;;;;;;;;5.10;92.80;;;;;;5019098;28;19973;-67
2022/04/21 00:55:11;;;;;;;;;;;5.10;92.40;;;;;;5032154;28;19947;-66
2022/04/21 00:57:40;;;;;;;;;;;5.10;92.00;;;;;;5032588;28;19972;-66
2022/04/21 01:00:07;;;;;;;;;;;5.10;91.80;;;;;;5030497;28;19971;-67
2022/04/21 01:02:46;;;;;;;;;;;5.10;91.90;;;;;;5027210;28;19940;-66
2022/04/21 01:05:16;;;;;;;;;;;5.10;91.90;;;;;;5032064;28;19929;-66
2022/04/21 01:07:45;;;;;;;;;;;5.10;92.30;;;;;;5036260;28;19956;-66
2022/04/21 01:10:12;;;;;;;;;;;5.00;92.60;;;;;;5029610;28;19929;-67
2022/04/21 01:12:40;;;;;;;;;;;5.00;92.50;;;;;;5034063;28;21573;-66
2022/04/21 01:15:09;;;;;;;;;;;5.00;92.50;;;;;;5029598;28;19933;-66
2022/04/21 01:17:37;;;;;;;;;;;4.90;92.50;;;;;;5031773;28;19929;-66
2022/04/21 01:20:05;;;;;;;;;;;4.80;92.40;;;;;;5027735;28;19929;-66
2022/04/21 01:22:32;;;;;;;;;;;4.90;92.40;;;;;;5028631;28;19925;-66
2022/04/21 01:24:59;;;;;;;;;;;4.80;92.50;;;;;;5039214;28;19933;-66
2022/04/21 01:27:29;;;;;;;;;;;4.80;92.70;;;;;;5039186;28;19936;-67
2022/04/21 01:29:56;;;;;;;;;;;4.80;92.50;;;;;;5034513;28;20204;-66
2022/04/21 01:32:23;;;;;;;;;;;4.80;92.10;;;;;;5035365;28;20042;-66
2022/04/21 01:34:50;;;;;;;;;;;4.70;91.90;;;;;;5030539;28;19933;-66
2022/04/21 01:42:48;;;;;;;;;;;4.60;91.90;;;;;;5034025;28;20034;-66
2022/04/21 01:45:16;;;;;;;;;;;4.70;92.30;;;;;;5033127;28;19939;-67
2022/04/21 01:47:43;;;;;;;;;;;4.60;92.00;;;;;;5049037;28;20342;-66
2022/04/21 01:50:13;;;;;;;;;;;4.70;92.10;;;;;;5033716;28;19932;-66
2022/04/21 01:52:39;;;;;;;;;;;4.60;92.00;;;;;;5035824;28;19944;-66
2022/04/21 01:55:07;;;;;;;;;;;4.60;91.90;;;;;;5024563;28;20013;-66
2022/04/21 01:57:34;;;;;;;;;;;4.60;91.70;;;;;;5031582;28;20063;-66
2022/04/21 02:00:01;;;;;;;;;;;4.50;92.10;;;;;;5036180;28;19929;-66
2022/04/21 02:02:30;;;;;;;;;;;4.50;92.10;;;;;;5034103;28;19939;-66
2022/04/21 02:04:57;;;;;;;;;;;4.40;92.00;;;;;;5034501;28;19940;-66
2022/04/21 02:07:24;;;;;;;;;;;4.40;91.80;;;;;;5031938;28;19925;-66
2022/04/21 02:09:51;;;;;;;;;;;4.40;91.80;;;;;;5034121;28;19924;-66
2022/04/21 02:12:18;;;;;;;;;;;4.40;91.40;;;;;;5032971;28;20567;-66
2022/04/21 02:14:45;;;;;;;;;;;4.40;91.90;;;;;;5038245;28;19933;-66
2022/04/21 02:17:13;;;;;;;;;;;4.30;92.20;;;;;;5038731;28;19936;-66
2022/04/21 02:19:42;;;;;;;;;;;4.40;92.10;;;;;;5034259;28;20044;-66
2022/04/21 02:22:09;;;;;;;;;;;4.40;91.90;;;;;;5032425;28;19936;-66
2022/04/21 02:24:36;;;;;;;;;;;4.30;92.30;;;;;;5037566;28;19929;-66
2022/04/21 02:27:03;;;;;;;;;;;4.30;92.50;;;;;;5035352;28;19940;-66
2022/04/21 02:29:30;;;;;;;;;;;4.30;92.20;;;;;;5038362;28;19929;-66
2022/04/21 02:31:59;;;;;;;;;;;4.20;92.40;;;;;;5045850;28;19929;-66
2022/04/21 02:34:26;;;;;;;;;;;4.20;92.20;;;;;;5035300;28;19945;-66
2022/04/21 02:36:53;;;;;;;;;;;4.10;92.20;;;;;;5033873;28;20019;-67
2022/04/21 02:39:20;;;;;;;;;;;4.10;92.40;;;;;;5038529;28;19928;-66
2022/04/21 02:41:47;;;;;;;;;;;4.10;92.30;;;;;;5028240;28;19939;-66
2022/04/21 02:44:14;;;;;;;;;;;4.10;92.10;;;;;;5035859;28;19929;-66
2022/04/21 02:46:41;;;;;;;;;;;4.10;92.10;;;;;;5034525;28;19925;-66
2022/04/21 02:49:08;;;;;;;;;;;4.10;91.80;;;;;;5033131;28;19932;-66
2022/04/21 02:51:35;;;;;;;;;;;4.00;92.10;;;;;;5020341;28;19932;-66
2022/04/21 02:59:33;;;;;;;;;;;4.00;92.30;;;;;;5031460;28;19929;-66
2022/04/21 03:02:01;;;;;;;;;;;4.00;92.30;;;;;;5044668;28;20431;-66
2022/04/21 03:04:31;;;;;;;;;;;4.00;92.20;;;;;;5032619;28;19932;-66
2022/04/21 03:06:58;;;;;;;;;;;4.00;92.10;;;;;;5034967;28;20309;-66
2022/04/21 03:09:25;;;;;;;;;;;4.00;92.00;;;;;;5038751;28;19929;-66
2022/04/21 03:11:52;;;;;;;;;;;3.90;92.10;;;;;;5029887;28;19933;-66
2022/04/21 03:14:19;;;;;;;;;;;3.80;92.30;;;;;;5031063;28;19933;-66
2022/04/21 03:16:46;;;;;;;;;;;3.80;92.20;;;;;;5028419;28;20008;-67
2022/04/21 03:19:13;;;;;;;;;;;3.90;92.00;;;;;;5028600;28;19929;-66
2022/04/21 03:24:26;;;;;;;;;;;3.80;91.70;;;;;;5030524;28;19929;-66
2022/04/21 03:26:53;;;;;;;;;;;3.70;91.90;;;;;;5037444;28;20286;-66
2022/04/21 03:29:20;;;;;;;;;;;3.70;92.20;;;;;;5032644;28;19936;-66
2022/04/21 03:31:50;;;;;;;;;;;3.70;92.70;;;;;;5028215;28;19933;-66
2022/04/21 03:34:18;;;;;;;;;;;3.70;92.20;;;;;;5032033;28;20046;-66
2022/04/21 03:36:47;;;;;;;;;;;3.70;92.50;;;;;;5016487;28;20885;-66
2022/04/21 03:39:21;;;;;;;;;;;3.70;92.50;;;;;;5031554;28;19935;-66
2022/04/21 03:41:53;;;;;;;;;;;3.70;92.40;;;;;;5031238;28;19929;-66
2022/04/21 03:44:21;;;;;;;;;;;3.70;92.70;;;;;;5030642;28;19952;-66
2022/04/21 03:46:48;;;;;;;;;;;3.60;92.80;;;;;;5037030;28;19929;-66
2022/04/21 03:49:15;;;;;;;;;;;3.60;93.30;;;;;;5029647;28;19925;-66
2022/04/21 03:51:42;;;;;;;;;;;3.60;93.20;;;;;;5030362;28;19929;-66
2022/04/21 03:54:09;;;;;;;;;;;3.60;93.30;;;;;;5046112;28;20328;-66
2022/04/21 03:56:37;;;;;;;;;;;3.60;93.60;;;;;;5030098;28;19928;-65
2022/04/21 03:59:07;;;;;;;;;;;3.50;92.90;;;;;;5031425;28;20392;-66
2022/04/21 04:01:38;;;;;;;;;;;3.60;93.00;;;;;;5045151;28;20338;-65
2022/04/21 04:04:08;;;;;;;;;;;3.60;93.00;;;;;;5027671;28;20386;-66
2022/04/21 04:12:07;;;;;;;;;;;3.50;93.20;;;;;;5030801;28;19929;-66
2022/04/21 04:14:34;;;;;;;;;;;3.50;93.20;;;;;;5032260;28;19928;-66
2022/04/21 04:17:01;;;;;;;;;;;3.50;93.30;;;;;;5037864;28;19928;-66
2022/04/21 04:19:29;;;;;;;;;;;3.50;93.80;;;;;;5031594;28;19929;-66
2022/04/21 04:21:56;;;;;;;;;;;3.60;93.40;;;;;;5029969;28;20387;-66
2022/04/21 04:24:24;;;;;;;;;;;3.60;93.90;;;;;;5029611;28;20363;-66
2022/04/21 04:26:51;;;;;;;;;;;3.70;93.80;;;;;;5035003;28;20679;-66
2022/04/21 04:29:24;;;;;;;;;;;3.70;93.60;;;;;;5032515;28;19931;-66
2022/04/21 04:31:52;;;;;;;;;;;3.70;93.60;;;;;;5034035;28;19932;-67
2022/04/21 04:34:20;;;;;;;;;;;3.70;93.50;;;;;;5030130;28;19933;-67
2022/04/21 04:36:46;;;;;;;;;;;3.80;93.30;;;;;;5030287;28;19951;-67
2022/04/21 04:39:14;;;;;;;;;;;3.70;93.20;;;;;;5029153;28;19929;-66
2022/04/21 04:44:27;;;;;;;;;;;3.80;94.10;;;;;;5031979;28;19936;-66
2022/04/21 04:46:54;;;;;;;;;;;3.80;94.30;;;;;;5033663;28;20356;-65
2022/04/21 04:49:22;;;;;;;;;;;3.90;94.30;;;;;;5032901;28;19929;-66
2022/04/21 04:51:50;;;;;;;;;;;3.90;94.30;;;;;;5035742;28;19960;-66
2022/04/21 04:54:18;;;;;;;;;;;4.00;94.50;;;;;;5032932;28;22399;-66
2022/04/21 04:56:45;;;;;;;;;;;4.00;95.10;;;;;;5018063;28;19936;-66
2022/04/21 04:59:13;;;;;;;;;;;4.00;94.70;;;;;;5032687;28;20303;-65
2022/04/21 05:01:45;;;;;;;;;;;4.10;95.00;;;;;;5005508;28;19974;-66
2022/04/21 05:04:13;;;;;;;;;;;4.10;95.10;;;;;;4992903;28;19937;-66
2022/04/21 05:06:51;;;;;;;;;;;4.20;95.20;;;;;;4990592;28;19933;-66
2022/04/21 05:09:19;;;;;;;;;;;4.30;95.50;;;;;;4989311;28;20687;-66
2022/04/21 05:11:53;;;;;;;;;;;4.30;95.70;;;;;;4976526;28;19968;-66
2022/04/21 05:14:20;;;;;;;;;;;4.40;95.90;;;;;;4993206;28;20835;-66
2022/04/21 05:16:48;;;;;;;;;;;4.40;96.30;;;;;;4992781;28;20030;-66
2022/04/21 05:19:16;;;;;;;;;;;4.50;96.50;;;;;;4988645;28;19940;-66
2022/04/21 05:21:44;;;;;;;;;;;4.50;96.30;;;;;;4993565;28;20830;-66
2022/04/21 05:24:11;;;;;;;;;;;4.60;96.30;;;;;;4990952;28;19939;-66
2022/04/21 05:26:39;;;;;;;;;;;4.80;96.20;;;;;;4978597;28;19933;-66
2022/04/21 05:30:55;;;;;;;;;;;4.80;97.00;;;;;;4976448;28;19968;-66
2022/04/21 05:31:53;;;;;;;;;;;4.90;96.80;;;;;;4991375;28;19939;-66
2022/04/21 05:34:20;;;;;;;;;;;5.00;96.80;;;;;;4995811;28;19939;-66
2022/04/21 05:36:48;;;;;;;;;;;5.10;96.40;;;;;;5005234;28;22834;-66
2022/04/21 05:39:15;;;;;;;;;;;5.20;96.30;;;;;;4990422;28;19983;-67
2022/04/21 05:41:44;;;;;;;;;;;5.20;96.30;;;;;;4991457;28;19933;-66
2022/04/21 05:44:11;;;;;;;;;;;5.30;96.30;;;;;;4990255;28;19933;-66
2022/04/21 05:46:38;;;;;;;;;;;5.40;96.10;;;;;;4988920;28;19984;-66
2022/04/21 05:49:06;;;;;;;;;;;5.50;96.00;;;;;;4989430;28;19933;-66
2022/04/21 05:51:33;;;;;;;;;;;5.70;95.80;;;;;;4992831;28;19933;-66
2022/04/21 05:54:03;;;;;;;;;;;5.80;95.60;;;;;;4979117;28;19932;-66
2022/04/21 05:56:30;;;;;;;;;;;5.90;95.00;;;;;;4990146;28;20083;-66
2022/04/21 05:58:57;;;;;;;;;;;6.00;94.90;;;;;;4990098;28;19933;-66
2022/04/21 06:01:25;;;;;;;;;;;6.10;94.10;;;;;;4986040;28;19933;-66
2022/04/21 06:03:52;;;;;;;;;;;6.30;94.10;;;;;;4989341;28;19933;-66
2022/04/21 06:06:19;;;;;;;;;;;6.40;94.50;;;;;;5004142;28;20304;-66
2022/04/21 06:08:46;;;;;;;;;;;6.50;94.80;;;;;;4989463;28;19940;-66
2022/04/21 06:11:13;;;;;;;;;;;6.70;93.00;;;;;;4972816;28;19937;-66
2022/04/21 06:13:41;;;;;;;;;;;6.90;92.60;;;;;;5004898;28;19932;-66
2022/04/21 06:16:08;;;;;;;;;;;7.00;93.50;;;;;;4988031;28;19937;-66
2022/04/21 06:18:36;;;;;;;;;;;7.20;92.60;;;;;;4990659;28;19933;-66
2022/04/21 06:21:05;;;;;;;;;;;7.30;92.30;;;;;;4977064;28;20327;-66
2022/04/21 06:23:32;;;;;;;;;;;7.40;92.30;;;;;;4991679;28;19933;-66
2022/04/21 06:25:59;;;;;;;;;;;7.60;91.30;;;;;;4994314;28;21156;-66
2022/04/21 06:28:26;;;;;;;;;;;7.90;93.00;;;;;;4988749;28;19933;-66
2022/04/21 06:30:54;;;;;;;;;;;8.10;92.20;;;;;;4970647;28;19933;-66
2022/04/21 06:33:21;;;;;;;;;;;8.20;91.10;;;;;;4985607;28;19939;-67
2022/04/21 06:35:48;;;;;;;;;;;8.30;91.50;;;;;;4987546;28;20091;-67
2022/04/21 06:38:16;;;;;;;;;;;8.50;91.90;;;;;;4969478;28;23441;-66
2022/04/21 06:40:43;;;;;;;;;;;8.60;90.00;;;;;;4978336;28;19940;-66
2022/04/21 06:48:43;;;;;;;;;;;9.10;90.00;;;;;;4969859;28;19933;-66
2022/04/21 06:51:09;;;;;;;;;;;9.30;86.70;;;;;;4971775;28;19976;-67
2022/04/21 06:53:37;;;;;;;;;;;9.50;90.00;;;;;;4988864;28;19933;-67
2022/04/21 06:56:04;;;;;;;;;;;9.70;87.80;;;;;;4984862;28;19933;-67
2022/04/21 06:58:31;;;;;;;;;;;9.80;88.90;;;;;;4977332;28;22917;-67
2022/04/21 07:00:58;;;;;;;;;;;9.90;86.50;;;;;;4983786;28;19947;-67
2022/04/21 07:03:25;;;;;;;;;;;10.10;84.70;;;;;;4981514;28;19937;-67
2022/04/21 07:05:55;;;;;;;;;;;10.20;86.30;;;;;;4985553;28;19964;-67
2022/04/21 07:08:22;;;;;;;;;;;10.30;84.70;;;;;;4988912;28;19933;-67
2022/04/21 07:10:49;;;;;;;;;;;10.40;82.90;;;;;;4986583;28;19941;-67
2022/04/21 07:13:16;;;;;;;;;;;10.50;83.00;;;;;;4988946;28;19933;-67
2022/04/21 07:15:43;;;;;;;;;;;10.70;83.80;;;;;;5001205;28;19940;-67
2022/04/21 07:18:11;;;;;;;;;;;10.80;78.50;;;;;;4995939;28;19933;-67
2022/04/21 07:20:39;;;;;;;;;;;10.90;78.60;;;;;;4984505;28;19972;-67
2022/04/21 07:23:06;;;;;;;;;;;10.90;76.00;;;;;;4987087;28;20055;-67
2022/04/21 07:25:33;;;;;;;;;;;11.20;74.50;;;;;;4988088;28;19933;-67
2022/04/21 07:28:00;;;;;;;;;;;11.50;74.50;;;;;;4987564;28;19945;-67
2022/04/21 07:30:27;;;;;;;;;;;11.60;72.10;;;;;;4987417;28;19933;-67
2022/04/21 07:32:54;;;;;;;;;;;11.70;74.10;;;;;;4989066;28;19933;-67
2022/04/21 07:35:24;;;;;;;;;;;11.80;74.30;;;;;;4989189;28;20705;-67
2022/04/21 07:37:58;;;;;;;;;;;11.80;69.40;;;;;;4987320;28;19933;-68
2022/04/21 07:40:26;;;;;;;;;;;12.00;70.80;;;;;;4987425;28;20731;-67
2022/04/21 07:42:53;;;;;;;;;;;12.10;70.20;;;;;;4998171;28;22374;-67
2022/04/21 07:45:20;;;;;;;;;;;12.20;69.10;;;;;;4989245;28;19979;-68
2022/04/21 07:47:47;;;;;;;;;;;12.40;68.90;;;;;;4989811;28;19933;-68
2022/04/21 07:50:14;;;;;;;;;;;12.30;65.80;;;;;;4977829;28;19932;-67
2022/04/21 07:53:13;;;;;;;;;;;12.40;66.80;;;;;;4986151;28;20795;-68
2022/04/21 07:55:42;;;;;;;;;;;12.40;66.80;;;;;;4987899;28;19932;-67
2022/04/21 07:58:10;;;;;;;;;;;12.50;65.10;;;;;;5005107;28;19933;-67
2022/04/21 08:00:38;;;;;;;;;;;12.60;64.40;;;;;;4985072;28;19933;-68
2022/04/21 08:03:12;;;;;;;;;;;12.70;61.50;;;;;;4986390;28;19940;-68
2022/04/21 08:05:41;;;;;;;;;;;12.90;62.50;;;;;;4986484;28;19971;-67
2022/04/21 08:08:11;;;;;;;;;;;13.20;61.60;;;;;;4989723;28;19933;-68
2022/04/21 08:10:38;;;;;;;;;;;13.10;60.00;;;;;;4976659;28;20083;-69
2022/04/21 08:13:05;;;;;;;;;;;13.10;60.80;;;;;;4998272;28;19940;-68
2022/04/21 08:15:33;;;;;;;;;;;13.20;60.00;;;;;;4986277;28;19964;-68
2022/04/21 08:18:03;;;;;;;;;;;13.40;62.60;;;;;;4990547;28;19933;-68
2022/04/21 08:20:31;;;;;;;;;;;13.70;63.20;;;;;;4989777;28;19933;-67
2022/04/21 08:22:58;;;;;;;;;;;13.90;60.80;;;;;;4985808;28;19936;-67
2022/04/21 08:34:21;;;;;;;;;;;14.20;59.30;;;;;;5000042;28;19976;-68
2022/04/21 08:36:53;;;;;;;;;;;14.10;57.80;;;;;;4988836;28;20608;-68
2022/04/21 08:39:20;;;;;;;;;;;14.10;58.30;;;;;;4986947;28;19933;-68
2022/04/21 08:41:51;;;;;;;;;;;14.30;57.30;;;;;;4987944;28;19936;-67
2022/04/21 08:44:19;;;;;;;;;;;14.20;57.60;;;;;;4982799;28;19979;-67
2022/04/21 08:46:49;;;;;;;;;;;14.30;56.60;;;;;;4987307;28;19940;-67
2022/04/21 08:49:21;;;;;;;;;;;14.40;57.10;;;;;;4976076;28;20078;-67
2022/04/21 08:51:48;;;;;;;;;;;14.50;57.90;;;;;;4984522;28;20003;-68
2022/04/21 08:54:15;;;;;;;;;;;14.50;56.00;;;;;;4987410;28;20018;-68
2022/04/21 08:56:43;;;;;;;;;;;14.60;55.50;;;;;;4985026;28;19933;-70
2022/04/21 08:59:10;;;;;;;;;;;14.70;55.50;;;;;;4987004;28;19945;-67
2022/04/21 09:01:37;;;;;;;;;;;14.70;55.40;;;;;;4987015;28;19940;-67
2022/04/21 09:04:04;;;;;;;;;;;14.70;56.00;;;;;;4987431;28;20002;-67
2022/04/21 09:06:36;;;;;;;;;;;14.70;55.40;;;;;;4991242;28;19945;-67
2022/04/21 09:09:14;;;;;;;;;;;14.80;54.50;;;;;;4988550;28;19939;-69
2022/04/21 09:11:43;;;;;;;;;;;14.80;53.60;;;;;;4986950;28;20229;-68
2022/04/21 09:14:15;;;;;;;;;;;15.00;55.00;;;;;;4987169;28;19933;-68
2022/04/21 09:16:42;;;;;;;;;;;15.00;52.50;;;;;;4986395;28;19940;-68
2022/04/21 09:19:09;;;;;;;;;;;14.90;53.80;;;;;;5003399;28;19932;-68
2022/04/21 09:21:37;;;;;;;;;;;15.20;52.40;;;;;;4988177;28;19933;-69
2022/04/21 09:24:20;;;;;;;;;;;15.40;51.70;;;;;;4986059;28;20599;-67
2022/04/21 09:26:48;;;;;;;;;;;15.40;50.80;;;;;;4985386;28;19933;-68
2022/04/21 09:29:29;;;;;;;;;;;15.20;49.40;;;;;;4988210;28;19932;-70
2022/04/21 09:32:04;;;;;;;;;;;15.30;51.20;;;;;;4985498;28;19933;-69
2022/04/21 09:34:35;;;;;;;;;;;15.50;52.00;;;;;;4983173;28;20549;-68
2022/04/21 09:37:10;;;;;;;;;;;15.50;51.30;;;;;;4985613;28;19933;-69
2022/04/21 09:39:40;;;;;;;;;;;15.50;49.60;;;;;;4988576;28;20415;-69
2022/04/21 09:42:07;;;;;;;;;;;15.40;49.80;;;;;;4986785;28;19932;-68
2022/04/21 09:47:27;;;;;;;;;;;15.60;48.70;;;;;;4989204;28;20063;-68
2022/04/21 09:49:55;;;;;;;;;;;15.70;49.00;;;;;;4979874;28;20893;-68
2022/04/21 09:52:26;;;;;;;;;;;15.90;48.80;;;;;;4995197;28;20109;-68
2022/04/21 09:54:53;;;;;;;;;;;15.90;49.10;;;;;;5005250;28;19972;-68
2022/04/21 09:57:30;;;;;;;;;;;16.10;51.70;;;;;;4991432;28;19940;-70
2022/04/21 09:59:57;;;;;;;;;;;15.80;46.30;;;;;;4989064;28;19933;-68
2022/04/21 10:02:25;;;;;;;;;;;15.90;47.50;;;;;;5001401;28;19967;-71
2022/04/21 10:04:54;;;;;;;;;;;15.90;47.90;;;;;;4988263;28;19974;-67
2022/04/21 10:07:22;;;;;;;;;;;16.20;48.50;;;;;;4986619;28;19933;-68
2022/04/21 10:09:49;;;;;;;;;;;15.50;47.80;;;;;;4983155;28;20315;-69
2022/04/21 10:12:17;;;;;;;;;;;15.80;48.40;;;;;;4986386;28;19933;-67
2022/04/21 10:14:45;;;;;;;;;;;16.10;46.70;;;;;;4989979;28;20055;-69
2022/04/21 10:17:13;;;;;;;;;;;16.10;46.70;;;;;;4993252;28;22987;-69
2022/04/21 10:19:40;;;;;;;;;;;15.90;45.90;;;;;;4989365;28;19971;-67
2022/04/21 10:22:12;;;;;;;;;;;16.00;48.60;;;;;;4989044;28;19933;-67
2022/04/21 10:24:39;;;;;;;;;;;15.90;47.20;;;;;;4991977;28;19932;-67
2022/04/21 10:27:33;;;;;;;;;;;16.10;47.80;;;;;;4986804;28;20071;-67
2022/04/21 10:30:00;;;;;;;;;;;15.90;47.40;;;;;;5006380;28;19940;-71
2022/04/21 10:32:46;;;;;;;;;;;16.20;50.10;;;;;;4989458;28;19933;-68
2022/04/21 10:35:27;;;;;;;;;;;16.20;49.70;;;;;;4993291;28;19940;-68
2022/04/21 10:38:14;;;;;;;;;;;15.90;48.10;;;;;;4970898;28;19932;-68
2022/04/21 10:40:57;;;;;;;;;;;16.00;49.20;;;;;;4985533;28;19937;-68
2022/04/21 10:43:25;;;;;;;;;;;15.90;48.60;;;;;;4981819;28;19933;-68
2022/04/21 10:46:02;;;;;;;;;;;16.00;52.00;;;;;;4985880;28;19933;-68
2022/04/21 10:48:39;;;;;;;;;;;15.90;47.80;;;;;;4983095;28;19998;-68
2022/04/21 10:51:06;;;;;;;;;;;16.10;50.60;;;;;;4983306;28;19933;-67
2022/04/21 10:59:31;;;;;;;;;;;16.10;50.70;;;;;;4999981;28;19940;-68
2022/04/21 11:02:14;;;;;;;;;;;15.80;50.70;;;;;;5003924;28;19933;-68
2022/04/21 11:04:41;;;;;;;;;;;15.80;49.30;;;;;;4982687;28;19982;-67
2022/04/21 11:07:12;;;;;;;;;;;16.30;48.30;;;;;;4986800;28;19939;-68
2022/04/21 11:09:44;;;;;;;;;;;16.40;49.50;;;;;;4985291;28;19952;-68
2022/04/21 11:12:41;;;;;;;;;;;16.10;48.90;;;;;;4990333;28;22166;-67
2022/04/21 11:15:27;;;;;;;;;;;16.40;48.60;;;;;;4989347;28;19940;-68
2022/04/21 11:18:01;;;;;;;;;;;16.40;50.30;;;;;;4988580;28;20067;-69
2022/04/21 11:20:28;;;;;;;;;;;16.40;47.50;;;;;;4995860;28;20396;-68
2022/04/21 11:22:55;;;;;;;;;;;16.80;48.90;;;;;;4989455;28;19940;-67
2022/04/21 11:25:22;;;;;;;;;;;16.90;48.30;;;;;;4989114;28;22456;-67
2022/04/21 11:27:51;;;;;;;;;;;17.00;46.90;;;;;;4986170;28;20264;-67
2022/04/21 11:30:18;;;;;;;;;;;17.10;48.60;;;;;;4986741;28;19969;-67
2022/04/21 11:32:50;;;;;;;;;;;17.00;47.60;;;;;;4983036;28;19947;-67
2022/04/21 11:35:18;;;;;;;;;;;17.00;46.80;;;;;;4969981;28;20041;-68
2022/04/21 11:37:46;;;;;;;;;;;16.70;47.40;;;;;;4986905;28;19972;-67
2022/04/21 11:40:32;;;;;;;;;;;17.20;47.80;;;;;;4984644;28;19959;-67
2022/04/21 11:43:02;;;;;;;;;;;17.20;47.90;;;;;;4996132;28;19940;-66
2022/04/21 11:45:38;;;;;;;;;;;17.30;47.00;;;;;;4984086;28;19933;-67
2022/04/21 11:48:09;;;;;;;;;;;17.00;48.70;;;;;;4971782;28;19933;-68
2022/04/21 11:50:36;;;;;;;;;;;16.80;50.30;;;;;;4984292;28;19934;-67
2022/04/21 11:53:10;;;;;;;;;;;17.20;49.60;;;;;;4983161;28;20013;-67
2022/04/21 11:55:37;;;;;;;;;;;17.40;48.80;;;;;;4983353;28;19940;-67
2022/04/21 11:58:11;;;;;;;;;;;17.50;45.80;;;;;;4984492;28;19982;-68
2022/04/21 12:06:28;;;;;;;;;;;17.50;46.00;;;;;;4987322;28;19940;-68
2022/04/21 12:08:55;;;;;;;;;;;17.50;43.50;;;;;;4990215;28;20805;-67
2022/04/21 12:11:23;;;;;;;;;;;17.50;45.30;;;;;;4999817;28;19933;-68
2022/04/21 12:13:50;;;;;;;;;;;17.50;43.00;;;;;;4981554;28;19933;-67
2022/04/21 12:16:37;;;;;;;;;;;17.50;46.10;;;;;;4981708;28;20018;-68
2022/04/21 12:19:11;;;;;;;;;;;17.80;47.00;;;;;;5005537;28;20691;-68
2022/04/21 12:21:38;;;;;;;;;;;17.80;48.10;;;;;;4994369;28;19940;-68
2022/04/21 12:24:16;;;;;;;;;;;17.80;47.00;;;;;;4989356;28;20641;-68
2022/04/21 12:26:53;;;;;;;;;;;17.00;46.00;;;;;;4987921;28;19933;-67
2022/04/21 12:29:20;;;;;;;;;;;17.30;46.60;;;;;;4989277;28;19940;-68
2022/04/21 12:31:52;;;;;;;;;;;17.70;48.60;;;;;;4993628;28;19932;-67
2022/04/21 12:34:22;;;;;;;;;;;17.50;48.00;;;;;;4995241;28;22350;-67
2022/04/21 12:36:52;;;;;;;;;;;17.60;46.10;;;;;;4993684;28;19933;-67
2022/04/21 12:39:22;;;;;;;;;;;17.60;46.20;;;;;;4995039;28;19940;-66
2022/04/21 12:42:09;;;;;;;;;;;17.80;45.30;;;;;;4994410;28;20716;-68
2022/04/21 12:44:36;;;;;;;;;;;17.70;44.00;;;;;;4989562;28;19933;-69
2022/04/21 12:47:17;;;;;;;;;;;17.70;45.20;;;;;;4987555;28;20327;-68
2022/04/21 12:49:55;;;;;;;;;;;17.70;45.10;;;;;;4986396;28;20619;-68
2022/04/21 12:52:31;;;;;;;;;;;17.50;45.80;;;;;;4989649;28;19933;-68
2022/04/21 12:54:58;;;;;;;;;;;17.80;45.70;;;;;;4987663;28;22347;-67
2022/04/21 12:57:27;;;;;;;;;;;17.70;44.10;;;;;;4986940;28;19933;-68
2022/04/21 12:59:54;;;;;;;;;;;17.80;45.80;;;;;;4995466;28;19933;-67
2022/04/21 13:02:22;;;;;;;;;;;17.60;45.00;;;;;;4989277;28;20010;-68
2022/04/21 13:04:49;;;;;;;;;;;18.00;45.70;;;;;;4986281;28;19933;-68
2022/04/21 13:07:16;;;;;;;;;;;18.20;45.30;;;;;;4994533;28;20311;-66
2022/04/21 13:09:43;;;;;;;;;;;18.30;44.20;;;;;;4977056;28;19933;-68
2022/04/21 13:12:10;;;;;;;;;;;18.10;44.90;;;;;;5003679;28;20458;-67
2022/04/21 13:14:38;;;;;;;;;;;18.10;46.40;;;;;;4989321;28;19933;-68
2022/04/21 13:17:05;;;;;;;;;;;18.30;45.30;;;;;;4988267;28;20715;-68
2022/04/21 13:19:33;;;;;;;;;;;18.10;45.10;;;;;;4989440;28;19933;-68
2022/04/21 13:22:03;;;;;;;;;;;18.10;46.10;;;;;;5004041;28;20162;-67
2022/04/21 13:24:31;;;;;;;;;;;18.50;45.30;;;;;;4992613;28;19933;-66
2022/04/21 13:26:59;;;;;;;;;;;18.40;45.20;;;;;;4990342;28;19934;-67
2022/04/21 13:29:29;;;;;;;;;;;18.30;44.90;;;;;;4991195;28;19933;-66
2022/04/21 13:34:44;;;;;;;;;;;18.00;44.20;;;;;;4990218;28;19933;-69
2022/04/21 13:37:11;;;;;;;;;;;18.20;44.20;;;;;;4991114;28;19941;-69
2022/04/21 13:39:40;;;;;;;;;;;18.20;45.00;;;;;;5005932;28;19940;-67
2022/04/21 13:42:08;;;;;;;;;;;18.10;44.50;;;;;;4993151;28;22823;-69
2022/04/21 13:44:36;;;;;;;;;;;18.20;42.90;;;;;;4992034;28;19940;-67
2022/04/21 13:47:23;;;;;;;;;;;18.10;42.30;;;;;;4993271;28;19933;-69
2022/04/21 13:49:50;;;;;;;;;;;18.20;42.70;;;;;;4989348;28;19932;-68
2022/04/21 13:52:17;;;;;;;;;;;18.40;45.00;;;;;;4993715;28;19933;-67
2022/04/21 13:54:46;;;;;;;;;;;18.40;42.40;;;;;;5006269;28;20058;-67
2022/04/21 13:57:14;;;;;;;;;;;18.40;41.90;;;;;;4991135;28;19933;-68
2022/04/21 13:59:41;;;;;;;;;;;18.20;42.30;;;;;;4992755;28;19937;-67
2022/04/21 14:02:08;;;;;;;;;;;18.20;42.40;;;;;;4992706;28;19940;-68
2022/04/21 14:04:35;;;;;;;;;;;18.00;41.20;;;;;;4991833;28;20669;-69
2022/04/21 14:07:04;;;;;;;;;;;17.90;42.10;;;;;;4990987;28;19933;-68
2022/04/21 14:09:31;;;;;;;;;;;18.00;41.20;;;;;;4991365;28;20774;-68
2022/04/21 14:11:58;;;;;;;;;;;18.00;42.50;;;;;;4990265;28;19972;-69
2022/04/21 14:14:28;;;;;;;;;;;18.00;43.70;;;;;;4991351;28;19933;-68
2022/04/21 14:16:55;;;;;;;;;;;18.10;41.10;;;;;;4991694;28;22446;-68
2022/04/21 14:19:23;;;;;;;;;;;17.90;41.80;;;;;;4992167;28;20587;-68
2022/04/21 14:21:51;;;;;;;;;;;17.80;40.70;;;;;;4998460;28;19933;-68
2022/04/21 14:24:18;;;;;;;;;;;17.90;41.80;;;;;;5005480;28;19940;-68
2022/04/21 14:26:45;;;;;;;;;;;17.80;42.20;;;;;;4989001;28;20689;-67
2022/04/21 14:29:13;;;;;;;;;;;17.90;41.00;;;;;;4991614;28;20745;-68
2022/04/21 14:31:40;;;;;;;;;;;17.80;40.20;;;;;;4985956;28;22385;-67
2022/04/21 14:34:07;;;;;;;;;;;17.80;41.40;;;;;;4989142;28;20407;-68
2022/04/21 14:36:34;;;;;;;;;;;17.90;38.70;;;;;;4992099;28;19940;-68
2022/04/21 14:44:32;;;;;;;;;;;17.70;39.60;;;;;;4991164;28;19939;-68
2022/04/21 14:47:03;;;;;;;;;;;17.50;38.90;;;;;;4989280;28;22338;-67
2022/04/21 14:49:50;;;;;;;;;;;17.40;38.50;;;;;;4989860;28;19933;-67
2022/04/21 14:52:17;;;;;;;;;;;17.50;37.90;;;;;;4996582;28;19941;-67
2022/04/21 14:54:44;;;;;;;;;;;17.50;38.40;;;;;;4989690;28;20759;-67
2022/04/21 14:57:11;;;;;;;;;;;17.30;37.00;;;;;;4990148;28;19937;-68
2022/04/21 14:59:37;;;;;;;;;;;17.20;37.40;;;;;;4989828;28;20603;-67
2022/04/21 15:02:07;;;;;;;;;;;17.30;38.90;;;;;;4990077;28;19933;-68
2022/04/21 15:04:36;;;;;;;;;;;17.30;38.80;;;;;;4991521;28;20011;-65
2022/04/21 15:07:08;;;;;;;;;;;17.10;37.70;;;;;;4987732;28;20075;-67
2022/04/21 15:09:35;;;;;;;;;;;17.00;38.10;;;;;;4988092;28;20182;-67
2022/04/21 15:12:02;;;;;;;;;;;17.00;37.70;;;;;;4987216;28;20387;-68
2022/04/21 15:14:30;;;;;;;;;;;17.10;38.50;;;;;;4988298;28;19976;-67
2022/04/21 15:16:58;;;;;;;;;;;17.00;39.20;;;;;;4989967;28;20439;-67
2022/04/21 15:19:25;;;;;;;;;;;16.90;38.80;;;;;;4989692;28;19933;-67
2022/04/21 15:21:52;;;;;;;;;;;17.00;38.60;;;;;;4988772;28;20018;-67
2022/04/21 15:24:19;;;;;;;;;;;17.00;39.20;;;;;;4987656;28;20376;-67
2022/04/21 15:26:46;;;;;;;;;;;16.90;38.80;;;;;;4990390;28;19932;-67
2022/04/21 15:29:13;;;;;;;;;;;16.90;41.10;;;;;;4989239;28;19933;-68
2022/04/21 15:31:40;;;;;;;;;;;16.90;39.90;;;;;;4989412;28;20003;-68
2022/04/21 15:34:08;;;;;;;;;;;16.80;41.20;;;;;;4989421;28;19940;-67
2022/04/21 15:36:38;;;;;;;;;;;16.80;40.90;;;;;;4988295;28;19933;-67